Alamosa, CO

2:23 AM MST on December 10, 2016 (GMT -0700)
San Luis Valley Regional / Bergman Field | | Change Station

Elev 7543 ft 37.44 °N, 105.86 °W | Updated 31 minutes ago

Clear
Clear
8 °F
Feels Like 8 °F
N
0
Wind Variable Wind from North

Today
High -- | Low -- °F
--% Chance of Precip.
Yesterday
High -- | Low -- °F
Precip. -- in
Pressure 30.32 in
Visibility 10.0 miles
Clouds Clear
Dew Point 5 °F
Humidity 87%
Rainfall 0.00 in
Snow Depth Not available.
7:07 AM 4:45 PM
Waxing Gibbous, 82% visible
METAR KALS 100852Z AUTO 00000KT 10SM CLR M13/M15 A3023 RMK AO2 SLP268 T11331150 56004
Pressure 30.32 in
Visibility 10.0 miles
Clouds Clear
Dew Point 5 °F
Humidity 87%
Rainfall 0.00 in
Snow Depth Not available.
7:07 AM 4:45 PM
Waxing Gibbous, 82% visible
METAR KALS 100852Z AUTO 00000KT 10SM CLR M13/M15 A3023 RMK AO2 SLP268 T11331150 56004

10-Day Weather Forecast

Almanac

Astronomy

Dec. 10, 2016 Rise Set
Actual Time
Civil Twilight
Nautical Twilight
Astronomical Twilight
Moon
Length of Visible Light
Length of Day
Tomorrow will be .
, % of the Moon is Illuminated

Today's Extremes

State Highs State Lows

Community

WunderPhotos

Upload Photos

1,956,538 photos uploaded!

WunderBlog® & News

Nearby

Air Quality

  Air Quality AQ Index Pollutant
Not available.

Snow Depth

Station Depth Elevation

Earthquake Activity

City Distance Mag. Time & Date
Minimum magnitude displayed is 2.5.

Coastal Water Temperatures

Place Temperature

Stations

Nearby Weather Stations

Station Location Temp. Windchill Dew Point Humidity Wind Precip. Elev Updated Type
                   

Watches & Warnings

There are currently no watches in effect.